sensor_id;sensor_type;location;lat;lon;timestamp;temperature;humidity
15959;DHT22;8078;47.822;9.402;2023-01-26T00:02:06;-1.80;99.90
15959;DHT22;8078;47.822;9.402;2023-01-26T00:04:31;-1.80;99.90
15959;DHT22;8078;47.822;9.402;2023-01-26T00:06:57;-1.80;99.90
15959;DHT22;8078;47.822;9.402;2023-01-26T00:09:22;-1.90;99.90
15959;DHT22;8078;47.822;9.402;2023-01-26T00:11:48;-1.90;99.90
15959;DHT22;8078;47.822;9.402;2023-01-26T00:14:14;-1.90;99.90
15959;DHT22;8078;47.822;9.402;2023-01-26T00:16:39;-2.10;99.90
15959;DHT22;8078;47.822;9.402;2023-01-26T00:19:05;-2.30;99.90
15959;DHT22;8078;47.822;9.402;2023-01-26T00:21:30;-2.40;99.90
15959;DHT22;8078;47.822;9.402;2023-01-26T00:23:56;-2.50;99.90
15959;DHT22;8078;47.822;9.402;2023-01-26T00:26:23;-2.40;99.90
15959;DHT22;8078;47.822;9.402;2023-01-26T00:28:50;-2.40;99.90
15959;DHT22;8078;47.822;9.402;2023-01-26T00:31:22;-2.40;99.90
15959;DHT22;8078;47.822;9.402;2023-01-26T00:33:48;-2.20;99.90
15959;DHT22;8078;47.822;9.402;2023-01-26T00:36:14;-2.10;99.90
15959;DHT22;8078;47.822;9.402;2023-01-26T00:38:40;-2.10;99.90
15959;DHT22;8078;47.822;9.402;2023-01-26T00:41:06;-2.20;99.90
15959;DHT22;8078;47.822;9.402;2023-01-26T00:43:32;-2.10;99.90
15959;DHT22;8078;47.822;9.402;2023-01-26T00:45:58;-2.20;99.90
15959;DHT22;8078;47.822;9.402;2023-01-26T00:48:23;-2.20;99.90
15959;DHT22;8078;47.822;9.402;2023-01-26T00:50:50;-2.20;99.90
15959;DHT22;8078;47.822;9.402;2023-01-26T00:53:15;-2.30;99.90
15959;DHT22;8078;47.822;9.402;2023-01-26T00:55:41;-2.10;99.90
15959;DHT22;8078;47.822;9.402;2023-01-26T00:58:07;-2.10;99.90
15959;DHT22;8078;47.822;9.402;2023-01-26T01:00:35;-2.10;99.90
15959;DHT22;8078;47.822;9.402;2023-01-26T01:03:01;-2.10;99.90
15959;DHT22;8078;47.822;9.402;2023-01-26T01:05:29;-2.10;99.90
15959;DHT22;8078;47.822;9.402;2023-01-26T01:07:56;-2.10;99.90
15959;DHT22;8078;47.822;9.402;2023-01-26T01:10:22;-2.20;99.90
15959;DHT22;8078;47.822;9.402;2023-01-26T01:12:47;-2.10;99.90
15959;DHT22;8078;47.822;9.402;2023-01-26T01:15:13;-2.10;99.90
15959;DHT22;8078;47.822;9.402;2023-01-26T01:17:39;-2.10;99.90
15959;DHT22;8078;47.822;9.402;2023-01-26T01:20:06;-2.10;99.90
15959;DHT22;8078;47.822;9.402;2023-01-26T01:22:33;-2.10;99.90
15959;DHT22;8078;47.822;9.402;2023-01-26T01:24:59;-2.20;99.90
15959;DHT22;8078;47.822;9.402;2023-01-26T01:27:25;-2.30;99.90
15959;DHT22;8078;47.822;9.402;2023-01-26T01:29:50;-2.30;99.90
15959;DHT22;8078;47.822;9.402;2023-01-26T01:32:17;-2.30;99.90
15959;DHT22;8078;47.822;9.402;2023-01-26T01:34:42;-2.30;99.90
15959;DHT22;8078;47.822;9.402;2023-01-26T01:37:08;-2.40;99.90
15959;DHT22;8078;47.822;9.402;2023-01-26T01:39:34;-2.50;99.90
15959;DHT22;8078;47.822;9.402;2023-01-26T01:41:59;-2.50;99.90
15959;DHT22;8078;47.822;9.402;2023-01-26T01:44:25;-2.40;99.90
15959;DHT22;8078;47.822;9.402;2023-01-26T01:46:54;-2.40;99.90
15959;DHT22;8078;47.822;9.402;2023-01-26T01:49:33;-2.50;99.90
15959;DHT22;8078;47.822;9.402;2023-01-26T01:52:13;-2.50;99.90
15959;DHT22;8078;47.822;9.402;2023-01-26T01:54:49;-2.40;99.90
15959;DHT22;8078;47.822;9.402;2023-01-26T01:57:21;-2.40;99.90
15959;DHT22;8078;47.822;9.402;2023-01-26T02:00:06;-2.40;99.90
15959;DHT22;8078;47.822;9.402;2023-01-26T02:02:33;-2.40;99.90
15959;DHT22;8078;47.822;9.402;2023-01-26T02:05:11;-2.40;99.90
15959;DHT22;8078;47.822;9.402;2023-01-26T02:07:38;-2.50;99.90
15959;DHT22;8078;47.822;9.402;2023-01-26T02:10:04;-2.40;99.90
15959;DHT22;8078;47.822;9.402;2023-01-26T02:12:43;-2.40;99.90
15959;DHT22;8078;47.822;9.402;2023-01-26T02:15:10;-2.40;99.90
15959;DHT22;8078;47.822;9.402;2023-01-26T02:17:35;-2.40;99.90
15959;DHT22;8078;47.822;9.402;2023-01-26T02:20:27;-2.40;99.90
15959;DHT22;8078;47.822;9.402;2023-01-26T02:25:47;-2.50;99.90
15959;DHT22;8078;47.822;9.402;2023-01-26T02:28:15;-2.70;99.90
15959;DHT22;8078;47.822;9.402;2023-01-26T02:30:42;-2.60;99.90
15959;DHT22;8078;47.822;9.402;2023-01-26T02:33:17;-2.50;99.90
15959;DHT22;8078;47.822;9.402;2023-01-26T02:35:43;-2.50;99.90
15959;DHT22;8078;47.822;9.402;2023-01-26T02:38:08;-2.50;99.90
15959;DHT22;8078;47.822;9.402;2023-01-26T02:43:17;-2.50;99.90
15959;DHT22;8078;47.822;9.402;2023-01-26T02:45:43;-2.40;99.90
15959;DHT22;8078;47.822;9.402;2023-01-26T02:48:09;-2.40;99.90
15959;DHT22;8078;47.822;9.402;2023-01-26T02:50:34;-2.40;99.90
15959;DHT22;8078;47.822;9.402;2023-01-26T02:53:01;-2.30;99.90
15959;DHT22;8078;47.822;9.402;2023-01-26T02:55:30;-2.40;99.90
15959;DHT22;8078;47.822;9.402;2023-01-26T02:58:02;-2.40;99.90
15959;DHT22;8078;47.822;9.402;2023-01-26T03:00:31;-2.40;99.90
15959;DHT22;8078;47.822;9.402;2023-01-26T03:03:00;-2.30;99.90
15959;DHT22;8078;47.822;9.402;2023-01-26T03:05:27;-2.60;99.90
15959;DHT22;8078;47.822;9.402;2023-01-26T03:07:53;-2.50;99.90
15959;DHT22;8078;47.822;9.402;2023-01-26T03:10:19;-2.60;99.90
15959;DHT22;8078;47.822;9.402;2023-01-26T03:12:45;-2.70;99.90
15959;DHT22;8078;47.822;9.402;2023-01-26T03:15:11;-2.70;99.90
15959;DHT22;8078;47.822;9.402;2023-01-26T03:18:06;-2.90;99.90
15959;DHT22;8078;47.822;9.402;2023-01-26T03:20:51;-2.90;99.90
15959;DHT22;8078;47.822;9.402;2023-01-26T03:23:35;-2.80;99.90
15959;DHT22;8078;47.822;9.402;2023-01-26T03:26:19;-2.80;99.90
15959;DHT22;8078;47.822;9.402;2023-01-26T03:29:03;-2.70;99.90
15959;DHT22;8078;47.822;9.402;2023-01-26T03:31:29;-2.70;99.90
15959;DHT22;8078;47.822;9.402;2023-01-26T03:33:55;-2.70;99.90
15959;DHT22;8078;47.822;9.402;2023-01-26T03:36:20;-2.70;99.90
15959;DHT22;8078;47.822;9.402;2023-01-26T03:38:46;-2.90;99.90
15959;DHT22;8078;47.822;9.402;2023-01-26T03:41:11;-2.90;99.90
15959;DHT22;8078;47.822;9.402;2023-01-26T03:43:56;-2.70;99.90
15959;DHT22;8078;47.822;9.402;2023-01-26T03:46:40;-2.80;99.90
15959;DHT22;8078;47.822;9.402;2023-01-26T03:49:24;-2.80;99.90
15959;DHT22;8078;47.822;9.402;2023-01-26T03:52:09;-3.00;99.90
15959;DHT22;8078;47.822;9.402;2023-01-26T03:54:53;-3.00;99.90
15959;DHT22;8078;47.822;9.402;2023-01-26T03:57:37;-3.00;99.90
15959;DHT22;8078;47.822;9.402;2023-01-26T04:00:03;-2.80;99.90
15959;DHT22;8078;47.822;9.402;2023-01-26T04:02:30;-2.90;99.90
15959;DHT22;8078;47.822;9.402;2023-01-26T04:05:14;-2.70;99.90
15959;DHT22;8078;47.822;9.402;2023-01-26T04:08:05;-2.70;99.90
15959;DHT22;8078;47.822;9.402;2023-01-26T04:10:52;-2.90;99.90
15959;DHT22;8078;47.822;9.402;2023-01-26T04:13:20;-2.90;99.90
15959;DHT22;8078;47.822;9.402;2023-01-26T04:16:06;-2.80;99.90
15959;DHT22;8078;47.822;9.402;2023-01-26T04:18:50;-2.70;99.90
15959;DHT22;8078;47.822;9.402;2023-01-26T04:21:35;-2.70;99.90
15959;DHT22;8078;47.822;9.402;2023-01-26T04:24:03;-2.80;99.90
15959;DHT22;8078;47.822;9.402;2023-01-26T04:26:39;-3.00;99.90
15959;DHT22;8078;47.822;9.402;2023-01-26T04:29:10;-3.00;99.90
15959;DHT22;8078;47.822;9.402;2023-01-26T04:31:37;-2.90;99.90
15959;DHT22;8078;47.822;9.402;2023-01-26T04:34:04;-2.90;99.90
15959;DHT22;8078;47.822;9.402;2023-01-26T04:36:30;-2.90;99.90
15959;DHT22;8078;47.822;9.402;2023-01-26T04:38:56;-2.90;99.90
15959;DHT22;8078;47.822;9.402;2023-01-26T04:41:22;-3.00;99.90
15959;DHT22;8078;47.822;9.402;2023-01-26T04:43:48;-3.00;99.90
15959;DHT22;8078;47.822;9.402;2023-01-26T04:46:14;-2.90;99.90
15959;DHT22;8078;47.822;9.402;2023-01-26T04:48:40;-2.90;99.90
15959;DHT22;8078;47.822;9.402;2023-01-26T04:51:09;-3.00;99.90
15959;DHT22;8078;47.822;9.402;2023-01-26T04:53:36;-3.00;99.90
15959;DHT22;8078;47.822;9.402;2023-01-26T04:56:01;-2.90;99.90
15959;DHT22;8078;47.822;9.402;2023-01-26T04:58:29;-2.80;99.90
15959;DHT22;8078;47.822;9.402;2023-01-26T05:00:56;-2.80;99.90
15959;DHT22;8078;47.822;9.402;2023-01-26T05:03:23;-2.80;99.90
15959;DHT22;8078;47.822;9.402;2023-01-26T05:05:50;-2.70;99.90
15959;DHT22;8078;47.822;9.402;2023-01-26T05:08:16;-2.80;99.90
15959;DHT22;8078;47.822;9.402;2023-01-26T05:10:42;-2.80;99.90
15959;DHT22;8078;47.822;9.402;2023-01-26T05:13:08;-2.90;99.90
15959;DHT22;8078;47.822;9.402;2023-01-26T05:15:34;-2.90;99.90
15959;DHT22;8078;47.822;9.402;2023-01-26T05:18:00;-2.90;99.90
15959;DHT22;8078;47.822;9.402;2023-01-26T05:20:25;-3.00;99.90
15959;DHT22;8078;47.822;9.402;2023-01-26T05:22:51;-2.90;99.90
15959;DHT22;8078;47.822;9.402;2023-01-26T05:25:17;-2.70;99.90
15959;DHT22;8078;47.822;9.402;2023-01-26T05:27:43;-2.60;99.90
15959;DHT22;8078;47.822;9.402;2023-01-26T05:30:09;-2.60;99.90
15959;DHT22;8078;47.822;9.402;2023-01-26T05:32:36;-2.60;99.90
15959;DHT22;8078;47.822;9.402;2023-01-26T05:35:02;-2.60;99.90
15959;DHT22;8078;47.822;9.402;2023-01-26T05:37:28;-2.50;99.90
15959;DHT22;8078;47.822;9.402;2023-01-26T05:39:54;-2.50;99.90
15959;DHT22;8078;47.822;9.402;2023-01-26T05:42:20;-2.50;99.90
15959;DHT22;8078;47.822;9.402;2023-01-26T05:44:46;-2.60;99.90
15959;DHT22;8078;47.822;9.402;2023-01-26T05:47:12;-2.60;99.90
15959;DHT22;8078;47.822;9.402;2023-01-26T05:49:37;-2.70;99.90
15959;DHT22;8078;47.822;9.402;2023-01-26T05:52:08;-2.70;99.90
15959;DHT22;8078;47.822;9.402;2023-01-26T05:54:35;-2.70;99.90
15959;DHT22;8078;47.822;9.402;2023-01-26T05:57:00;-2.70;99.90
15959;DHT22;8078;47.822;9.402;2023-01-26T05:59:26;-2.70;99.90
15959;DHT22;8078;47.822;9.402;2023-01-26T06:01:52;-2.70;99.90
15959;DHT22;8078;47.822;9.402;2023-01-26T06:04:17;-2.60;99.90
15959;DHT22;8078;47.822;9.402;2023-01-26T06:06:43;-2.60;99.90
15959;DHT22;8078;47.822;9.402;2023-01-26T06:09:09;-2.50;99.90
15959;DHT22;8078;47.822;9.402;2023-01-26T06:11:34;-2.40;99.90
15959;DHT22;8078;47.822;9.402;2023-01-26T06:14:00;-2.40;99.90
15959;DHT22;8078;47.822;9.402;2023-01-26T06:16:25;-2.40;99.90
15959;DHT22;8078;47.822;9.402;2023-01-26T06:18:51;-2.50;99.90
15959;DHT22;8078;47.822;9.402;2023-01-26T06:21:16;-2.40;99.90
15959;DHT22;8078;47.822;9.402;2023-01-26T06:23:42;-2.40;99.90
15959;DHT22;8078;47.822;9.402;2023-01-26T06:26:08;-2.40;99.90
15959;DHT22;8078;47.822;9.402;2023-01-26T06:28:33;-2.50;99.90
15959;DHT22;8078;47.822;9.402;2023-01-26T06:31:04;-2.60;99.90
15959;DHT22;8078;47.822;9.402;2023-01-26T06:33:31;-2.70;99.90
15959;DHT22;8078;47.822;9.402;2023-01-26T06:36:03;-2.70;99.90
15959;DHT22;8078;47.822;9.402;2023-01-26T06:38:29;-2.80;99.90
15959;DHT22;8078;47.822;9.402;2023-01-26T06:40:57;-2.70;99.90
15959;DHT22;8078;47.822;9.402;2023-01-26T06:43:23;-2.80;99.90
15959;DHT22;8078;47.822;9.402;2023-01-26T06:45:48;-2.80;99.90
15959;DHT22;8078;47.822;9.402;2023-01-26T06:48:14;-2.80;99.90
15959;DHT22;8078;47.822;9.402;2023-01-26T06:50:40;-2.80;99.90
15959;DHT22;8078;47.822;9.402;2023-01-26T06:55:55;-2.80;99.90
15959;DHT22;8078;47.822;9.402;2023-01-26T06:58:20;-2.60;99.90
15959;DHT22;8078;47.822;9.402;2023-01-26T07:00:46;-2.70;99.90
15959;DHT22;8078;47.822;9.402;2023-01-26T07:03:12;-2.80;99.90
15959;DHT22;8078;47.822;9.402;2023-01-26T07:05:37;-2.70;99.90
15959;DHT22;8078;47.822;9.402;2023-01-26T07:08:03;-2.70;99.90
15959;DHT22;8078;47.822;9.402;2023-01-26T07:10:30;-2.60;99.90
15959;DHT22;8078;47.822;9.402;2023-01-26T07:12:56;-2.60;99.90
15959;DHT22;8078;47.822;9.402;2023-01-26T07:15:21;-2.60;99.90
15959;DHT22;8078;47.822;9.402;2023-01-26T07:17:47;-2.60;99.90
15959;DHT22;8078;47.822;9.402;2023-01-26T07:20:13;-2.60;99.90
15959;DHT22;8078;47.822;9.402;2023-01-26T07:22:38;-2.60;99.90
15959;DHT22;8078;47.822;9.402;2023-01-26T07:25:04;-2.60;99.90
15959;DHT22;8078;47.822;9.402;2023-01-26T07:27:30;-2.60;99.90
15959;DHT22;8078;47.822;9.402;2023-01-26T07:29:55;-2.60;99.90
15959;DHT22;8078;47.822;9.402;2023-01-26T07:32:21;-2.60;99.90
15959;DHT22;8078;47.822;9.402;2023-01-26T07:34:46;-2.60;99.90
15959;DHT22;8078;47.822;9.402;2023-01-26T07:37:13;-2.50;99.90
15959;DHT22;8078;47.822;9.402;2023-01-26T07:39:39;-2.50;99.90
15959;DHT22;8078;47.822;9.402;2023-01-26T07:42:04;-2.40;99.90
15959;DHT22;8078;47.822;9.402;2023-01-26T07:44:30;-2.40;99.90
15959;DHT22;8078;47.822;9.402;2023-01-26T07:46:56;-2.40;99.90
15959;DHT22;8078;47.822;9.402;2023-01-26T07:49:22;-2.30;99.90
15959;DHT22;8078;47.822;9.402;2023-01-26T07:51:48;-2.20;99.90
15959;DHT22;8078;47.822;9.402;2023-01-26T07:54:13;-2.10;99.90
15959;DHT22;8078;47.822;9.402;2023-01-26T07:56:39;-2.00;99.90
15959;DHT22;8078;47.822;9.402;2023-01-26T07:59:04;-2.00;99.90
15959;DHT22;8078;47.822;9.402;2023-01-26T08:01:30;-1.90;99.90
15959;DHT22;8078;47.822;9.402;2023-01-26T08:03:55;-2.00;99.90
15959;DHT22;8078;47.822;9.402;2023-01-26T08:06:21;-2.00;99.90
15959;DHT22;8078;47.822;9.402;2023-01-26T08:08:47;-2.00;99.90
15959;DHT22;8078;47.822;9.402;2023-01-26T08:11:18;-2.00;99.90
15959;DHT22;8078;47.822;9.402;2023-01-26T08:13:44;-2.10;99.90
15959;DHT22;8078;47.822;9.402;2023-01-26T08:16:10;-2.00;99.90
15959;DHT22;8078;47.822;9.402;2023-01-26T08:18:41;-2.00;99.90
15959;DHT22;8078;47.822;9.402;2023-01-26T08:21:08;-2.10;99.90
15959;DHT22;8078;47.822;9.402;2023-01-26T08:23:34;-2.10;99.90
15959;DHT22;8078;47.822;9.402;2023-01-26T08:26:00;-2.10;99.90
15959;DHT22;8078;47.822;9.402;2023-01-26T08:28:26;-2.00;99.90
15959;DHT22;8078;47.822;9.402;2023-01-26T08:30:52;-1.90;99.90
15959;DHT22;8078;47.822;9.402;2023-01-26T08:33:17;-1.80;99.90
15959;DHT22;8078;47.822;9.402;2023-01-26T08:35:43;-1.70;99.90
15959;DHT22;8078;47.822;9.402;2023-01-26T08:38:08;-1.50;99.90
15959;DHT22;8078;47.822;9.402;2023-01-26T08:40:34;-1.40;99.90
15959;DHT22;8078;47.822;9.402;2023-01-26T08:43:00;-1.20;99.90
15959;DHT22;8078;47.822;9.402;2023-01-26T08:45:26;-1.10;99.90
15959;DHT22;8078;47.822;9.402;2023-01-26T08:47:52;-1.10;99.90
15959;DHT22;8078;47.822;9.402;2023-01-26T08:50:17;-0.90;99.90
15959;DHT22;8078;47.822;9.402;2023-01-26T08:52:43;-0.70;99.90
15959;DHT22;8078;47.822;9.402;2023-01-26T08:55:09;-0.60;99.90
15959;DHT22;8078;47.822;9.402;2023-01-26T08:57:35;-0.50;99.90
15959;DHT22;8078;47.822;9.402;2023-01-26T09:00:00;-0.40;99.90
15959;DHT22;8078;47.822;9.402;2023-01-26T09:02:26;-0.30;99.90
15959;DHT22;8078;47.822;9.402;2023-01-26T09:04:52;-0.30;99.90
15959;DHT22;8078;47.822;9.402;2023-01-26T09:07:17;-0.40;99.90
15959;DHT22;8078;47.822;9.402;2023-01-26T09:09:43;-0.40;99.90
15959;DHT22;8078;47.822;9.402;2023-01-26T09:12:09;-0.40;99.90
15959;DHT22;8078;47.822;9.402;2023-01-26T09:14:34;-0.40;99.90
15959;DHT22;8078;47.822;9.402;2023-01-26T09:17:00;-0.50;99.90
15959;DHT22;8078;47.822;9.402;2023-01-26T09:19:25;-0.50;99.90
15959;DHT22;8078;47.822;9.402;2023-01-26T09:21:52;-0.40;99.90
15959;DHT22;8078;47.822;9.402;2023-01-26T09:24:19;-0.50;99.90
15959;DHT22;8078;47.822;9.402;2023-01-26T09:26:44;-0.50;99.90
15959;DHT22;8078;47.822;9.402;2023-01-26T09:29:10;-0.50;99.90
15959;DHT22;8078;47.822;9.402;2023-01-26T09:31:36;-0.40;99.90
15959;DHT22;8078;47.822;9.402;2023-01-26T09:34:01;-0.30;99.90
15959;DHT22;8078;47.822;9.402;2023-01-26T09:36:27;-0.20;99.90
15959;DHT22;8078;47.822;9.402;2023-01-26T09:38:52;0.00;99.90
15959;DHT22;8078;47.822;9.402;2023-01-26T09:41:47;-0.30;99.90
15959;DHT22;8078;47.822;9.402;2023-01-26T09:44:24;-0.70;99.90
15959;DHT22;8078;47.822;9.402;2023-01-26T09:47:05;-0.60;99.90
15959;DHT22;8078;47.822;9.402;2023-01-26T09:49:50;-0.60;99.90
15959;DHT22;8078;47.822;9.402;2023-01-26T09:52:48;-1.10;99.90
15959;DHT22;8078;47.822;9.402;2023-01-26T09:55:18;-0.90;99.90
15959;DHT22;8078;47.822;9.402;2023-01-26T09:57:50;-0.70;99.90
15959;DHT22;8078;47.822;9.402;2023-01-26T10:03:25;-0.40;99.90
15959;DHT22;8078;47.822;9.402;2023-01-26T10:06:14;-0.20;99.90
15959;DHT22;8078;47.822;9.402;2023-01-26T10:08:43;0.00;99.90
15959;DHT22;8078;47.822;9.402;2023-01-26T10:11:23;0.30;99.90
15959;DHT22;8078;47.822;9.402;2023-01-26T10:14:01;0.50;99.90
15959;DHT22;8078;47.822;9.402;2023-01-26T10:16:32;0.60;99.90
15959;DHT22;8078;47.822;9.402;2023-01-26T10:21:44;0.90;99.90
15959;DHT22;8078;47.822;9.402;2023-01-26T10:24:12;0.90;99.90
15959;DHT22;8078;47.822;9.402;2023-01-26T10:26:38;0.70;99.90
15959;DHT22;8078;47.822;9.402;2023-01-26T10:29:04;0.50;99.90
15959;DHT22;8078;47.822;9.402;2023-01-26T10:31:32;0.10;99.90
15959;DHT22;8078;47.822;9.402;2023-01-26T10:34:00;-0.20;99.90
15959;DHT22;8078;47.822;9.402;2023-01-26T10:36:31;-0.40;99.90
15959;DHT22;8078;47.822;9.402;2023-01-26T10:39:07;-0.70;99.90
15959;DHT22;8078;47.822;9.402;2023-01-26T10:41:34;-0.90;99.90
15959;DHT22;8078;47.822;9.402;2023-01-26T10:46:36;-0.80;99.90
15959;DHT22;8078;47.822;9.402;2023-01-26T10:51:35;-1.00;99.90
15959;DHT22;8078;47.822;9.402;2023-01-26T10:54:24;-0.90;99.90
15959;DHT22;8078;47.822;9.402;2023-01-26T10:57:01;-0.80;99.90
15959;DHT22;8078;47.822;9.402;2023-01-26T11:04:38;-0.10;99.90
15959;DHT22;8078;47.822;9.402;2023-01-26T11:07:34;0.00;99.90
15959;DHT22;8078;47.822;9.402;2023-01-26T11:10:29;0.00;99.90
15959;DHT22;8078;47.822;9.402;2023-01-26T11:13:25;0.00;99.90
15959;DHT22;8078;47.822;9.402;2023-01-26T11:16:19;0.10;99.90
15959;DHT22;8078;47.822;9.402;2023-01-26T11:19:04;0.20;99.90
15959;DHT22;8078;47.822;9.402;2023-01-26T11:21:38;0.00;99.90
15959;DHT22;8078;47.822;9.402;2023-01-26T11:24:10;-0.40;99.90
15959;DHT22;8078;47.822;9.402;2023-01-26T11:29:56;-0.50;99.90
15959;DHT22;8078;47.822;9.402;2023-01-26T11:32:40;-0.30;99.90
15959;DHT22;8078;47.822;9.402;2023-01-26T11:35:30;-0.20;99.90
15959;DHT22;8078;47.822;9.402;2023-01-26T11:40:51;-0.30;99.90
15959;DHT22;8078;47.822;9.402;2023-01-26T11:48:56;-0.90;99.90
15959;DHT22;8078;47.822;9.402;2023-01-26T11:54:26;-1.10;99.90
15959;DHT22;8078;47.822;9.402;2023-01-26T11:57:18;-1.10;99.90
15959;DHT22;8078;47.822;9.402;2023-01-26T12:00:00;-0.80;99.90
15959;DHT22;8078;47.822;9.402;2023-01-26T12:02:35;-0.60;99.90
15959;DHT22;8078;47.822;9.402;2023-01-26T12:05:22;-0.60;99.90
15959;DHT22;8078;47.822;9.402;2023-01-26T12:07:54;-0.50;99.90
15959;DHT22;8078;47.822;9.402;2023-01-26T12:10:32;-0.40;99.90
15959;DHT22;8078;47.822;9.402;2023-01-26T12:13:14;-0.20;99.90
15959;DHT22;8078;47.822;9.402;2023-01-26T12:15:43;-0.30;99.90
15959;DHT22;8078;47.822;9.402;2023-01-26T12:18:25;-0.30;99.90
15959;DHT22;8078;47.822;9.402;2023-01-26T12:20:59;-0.30;99.90
15959;DHT22;8078;47.822;9.402;2023-01-26T12:23:50;-0.30;99.90
15959;DHT22;8078;47.822;9.402;2023-01-26T12:26:20;-0.20;99.90
15959;DHT22;8078;47.822;9.402;2023-01-26T12:29:10;-0.10;99.90
15959;DHT22;8078;47.822;9.402;2023-01-26T12:31:58;-0.10;99.90
15959;DHT22;8078;47.822;9.402;2023-01-26T12:34:27;0.00;99.90
15959;DHT22;8078;47.822;9.402;2023-01-26T12:39:59;-0.30;99.90
15959;DHT22;8078;47.822;9.402;2023-01-26T12:45:17;-0.30;99.90
15959;DHT22;8078;47.822;9.402;2023-01-26T12:47:50;-0.40;99.90
15959;DHT22;8078;47.822;9.402;2023-01-26T12:50:37;-0.50;99.90
15959;DHT22;8078;47.822;9.402;2023-01-26T12:55:48;-0.70;99.90
15959;DHT22;8078;47.822;9.402;2023-01-26T12:58:17;-0.80;99.90
15959;DHT22;8078;47.822;9.402;2023-01-26T13:03:33;-0.90;99.90
15959;DHT22;8078;47.822;9.402;2023-01-26T13:11:04;-1.10;99.90
15959;DHT22;8078;47.822;9.402;2023-01-26T13:13:53;-1.30;99.90
15959;DHT22;8078;47.822;9.402;2023-01-26T13:18:57;-1.40;99.90
15959;DHT22;8078;47.822;9.402;2023-01-26T13:26:47;-1.10;99.90
15959;DHT22;8078;47.822;9.402;2023-01-26T13:34:40;-1.10;99.90
15959;DHT22;8078;47.822;9.402;2023-01-26T13:37:35;-1.30;99.90
15959;DHT22;8078;47.822;9.402;2023-01-26T13:40:20;-1.20;99.90
15959;DHT22;8078;47.822;9.402;2023-01-26T13:45:22;-1.10;99.90
15959;DHT22;8078;47.822;9.402;2023-01-26T13:47:52;-1.10;99.90
15959;DHT22;8078;47.822;9.402;2023-01-26T13:50:31;-1.20;99.90
15959;DHT22;8078;47.822;9.402;2023-01-26T13:52:57;-1.20;99.90
15959;DHT22;8078;47.822;9.402;2023-01-26T13:55:30;-1.30;99.90
15959;DHT22;8078;47.822;9.402;2023-01-26T13:58:17;-1.30;99.90
15959;DHT22;8078;47.822;9.402;2023-01-26T14:00:57;-1.40;99.90
15959;DHT22;8078;47.822;9.402;2023-01-26T14:03:23;-1.60;99.90
15959;DHT22;8078;47.822;9.402;2023-01-26T14:05:55;-1.50;99.90
15959;DHT22;8078;47.822;9.402;2023-01-26T14:08:22;-1.50;99.90
15959;DHT22;8078;47.822;9.402;2023-01-26T14:10:48;-1.70;99.90
15959;DHT22;8078;47.822;9.402;2023-01-26T14:13:36;-1.70;99.90
15959;DHT22;8078;47.822;9.402;2023-01-26T14:16:04;-1.60;99.90
15959;DHT22;8078;47.822;9.402;2023-01-26T14:18:30;-1.60;99.90
15959;DHT22;8078;47.822;9.402;2023-01-26T14:21:04;-1.70;99.90
15959;DHT22;8078;47.822;9.402;2023-01-26T14:23:36;-1.60;99.90
15959;DHT22;8078;47.822;9.402;2023-01-26T14:26:11;-1.60;99.90
15959;DHT22;8078;47.822;9.402;2023-01-26T14:28:42;-1.60;99.90
15959;DHT22;8078;47.822;9.402;2023-01-26T14:31:25;-1.60;99.90
15959;DHT22;8078;47.822;9.402;2023-01-26T14:33:53;-1.50;99.90
15959;DHT22;8078;47.822;9.402;2023-01-26T14:36:24;-1.60;99.90
15959;DHT22;8078;47.822;9.402;2023-01-26T14:38:51;-1.60;99.90
15959;DHT22;8078;47.822;9.402;2023-01-26T14:41:30;-1.60;99.90
15959;DHT22;8078;47.822;9.402;2023-01-26T14:43:58;-1.90;99.90
15959;DHT22;8078;47.822;9.402;2023-01-26T14:49:07;-2.00;99.90
15959;DHT22;8078;47.822;9.402;2023-01-26T14:51:36;-2.00;99.90
15959;DHT22;8078;47.822;9.402;2023-01-26T14:54:05;-2.00;99.90
15959;DHT22;8078;47.822;9.402;2023-01-26T14:56:37;-1.90;99.90
15959;DHT22;8078;47.822;9.402;2023-01-26T14:59:04;-1.90;99.90
15959;DHT22;8078;47.822;9.402;2023-01-26T15:01:31;-1.90;99.90
15959;DHT22;8078;47.822;9.402;2023-01-26T15:04:00;-1.90;99.90
15959;DHT22;8078;47.822;9.402;2023-01-26T15:06:28;-1.90;99.90
15959;DHT22;8078;47.822;9.402;2023-01-26T15:08:55;-1.80;99.90
15959;DHT22;8078;47.822;9.402;2023-01-26T15:11:32;-1.90;99.90
15959;DHT22;8078;47.822;9.402;2023-01-26T15:14:30;-1.80;99.90
15959;DHT22;8078;47.822;9.402;2023-01-26T15:16:56;-1.90;99.90
15959;DHT22;8078;47.822;9.402;2023-01-26T15:19:23;-2.10;99.90
15959;DHT22;8078;47.822;9.402;2023-01-26T15:21:49;-2.00;99.90
15959;DHT22;8078;47.822;9.402;2023-01-26T15:24:15;-2.00;99.90
15959;DHT22;8078;47.822;9.402;2023-01-26T15:26:41;-1.90;99.90
15959;DHT22;8078;47.822;9.402;2023-01-26T15:29:30;-1.90;99.90
15959;DHT22;8078;47.822;9.402;2023-01-26T15:31:56;-1.90;99.90
15959;DHT22;8078;47.822;9.402;2023-01-26T15:34:41;-2.00;99.90
15959;DHT22;8078;47.822;9.402;2023-01-26T15:39:51;-2.10;99.90
15959;DHT22;8078;47.822;9.402;2023-01-26T15:42:21;-2.20;99.90
15959;DHT22;8078;47.822;9.402;2023-01-26T15:44:48;-2.30;99.90
15959;DHT22;8078;47.822;9.402;2023-01-26T15:47:14;-2.20;99.90
15959;DHT22;8078;47.822;9.402;2023-01-26T15:49:40;-2.20;99.90
15959;DHT22;8078;47.822;9.402;2023-01-26T15:52:33;-2.30;99.90
15959;DHT22;8078;47.822;9.402;2023-01-26T15:55:07;-2.30;99.90
15959;DHT22;8078;47.822;9.402;2023-01-26T15:57:38;-2.40;99.90
15959;DHT22;8078;47.822;9.402;2023-01-26T16:00:04;-2.40;99.90
15959;DHT22;8078;47.822;9.402;2023-01-26T16:02:31;-2.40;99.90
15959;DHT22;8078;47.822;9.402;2023-01-26T16:04:57;-2.40;99.90
15959;DHT22;8078;47.822;9.402;2023-01-26T16:07:23;-2.40;99.90
15959;DHT22;8078;47.822;9.402;2023-01-26T16:09:49;-2.50;99.90
15959;DHT22;8078;47.822;9.402;2023-01-26T16:12:17;-2.50;99.90
15959;DHT22;8078;47.822;9.402;2023-01-26T16:14:43;-2.50;99.90
15959;DHT22;8078;47.822;9.402;2023-01-26T16:17:16;-2.60;99.90
15959;DHT22;8078;47.822;9.402;2023-01-26T16:19:43;-2.50;99.90
15959;DHT22;8078;47.822;9.402;2023-01-26T16:22:10;-2.50;99.90
15959;DHT22;8078;47.822;9.402;2023-01-26T16:24:36;-2.50;99.90
15959;DHT22;8078;47.822;9.402;2023-01-26T16:27:03;-2.50;99.90
15959;DHT22;8078;47.822;9.402;2023-01-26T16:29:29;-2.60;99.90
15959;DHT22;8078;47.822;9.402;2023-01-26T16:31:55;-2.60;99.90
15959;DHT22;8078;47.822;9.402;2023-01-26T16:34:21;-2.60;99.90
15959;DHT22;8078;47.822;9.402;2023-01-26T16:36:47;-2.60;99.90
15959;DHT22;8078;47.822;9.402;2023-01-26T16:39:12;-2.60;99.90
15959;DHT22;8078;47.822;9.402;2023-01-26T16:41:38;-2.60;99.90
15959;DHT22;8078;47.822;9.402;2023-01-26T16:44:11;-2.60;99.90
15959;DHT22;8078;47.822;9.402;2023-01-26T16:46:37;-2.60;99.90
15959;DHT22;8078;47.822;9.402;2023-01-26T16:49:02;-2.60;99.90
15959;DHT22;8078;47.822;9.402;2023-01-26T16:51:30;-2.60;99.90
15959;DHT22;8078;47.822;9.402;2023-01-26T16:53:57;-2.50;99.90
15959;DHT22;8078;47.822;9.402;2023-01-26T16:56:23;-2.60;99.90
15959;DHT22;8078;47.822;9.402;2023-01-26T16:58:49;-2.60;99.90
15959;DHT22;8078;47.822;9.402;2023-01-26T17:01:17;-2.60;99.90
15959;DHT22;8078;47.822;9.402;2023-01-26T17:03:44;-2.70;99.90
15959;DHT22;8078;47.822;9.402;2023-01-26T17:06:10;-2.70;99.90
15959;DHT22;8078;47.822;9.402;2023-01-26T17:08:37;-2.70;99.90
15959;DHT22;8078;47.822;9.402;2023-01-26T17:11:02;-2.70;99.90
15959;DHT22;8078;47.822;9.402;2023-01-26T17:13:28;-2.80;99.90
15959;DHT22;8078;47.822;9.402;2023-01-26T17:15:55;-2.70;99.90
15959;DHT22;8078;47.822;9.402;2023-01-26T17:18:21;-2.70;99.90
15959;DHT22;8078;47.822;9.402;2023-01-26T17:20:46;-2.70;99.90
15959;DHT22;8078;47.822;9.402;2023-01-26T17:23:12;-2.70;99.90